Terminal Aerodrome Forecast
Issued by NWS Cleveland, OH

Home | Current Version | Previous Version | Graphics & Text | Print | Product List | Glossary Off
Versions: 1 2 3 4 5 6 7 8 9 10 11 12 13 14 15 16 17 18 19 20 21 22 23

870
FTUS41 KCLE 281859 AAA
TAFCAK
TAF AMD
KCAK 281859Z 2819/2918 05008KT P6SM OVC007
     FM290400 02005KT 2SM -DZ BR OVC003
     FM291500 32006KT P6SM OVC006
     FM291700 31005KT P6SM SCT008 OVC015=

USA.gov is the U.S. government's official web portal to all federal, state and local government web resources and services.